Weather at Arivaca Hay Field Glider Landing Site

Public forecast

Using degrees Fahrenheit for public forecast. Weather courtesy of forecast.io.

Closest aviation weather report (METAR) to Arivaca Hay Field Glider Landing Site

Closest report is Nogales International Airport, 24.6 nm (45.5 km) ESE. Retrieved 2021/06/25 03:54 UTC (27 minutes ago):

KOLS 250354Z AUTO 00000KT 10SM CLR 28/10 A3002 RMK AO2 SLP089 T02830100

Closest aviation forecast (TAF) to Arivaca Hay Field Glider Landing Site

Closest forecast is Nogales International Airport, 24.6 nm (45.5 km) ESE. Retrieved 2021-06-25 00:22 UTC (4 hours ago):

TAF KOLS 242320Z 2500/2524 24010G17KT P6SM SCT080 BKN200 FM250200 26009KT P6SM SCT200 FM250600 VRB04KT P6SM SKC FM252000 25010G17KT P6SM FEW090